createdAt,value
2023-06-28T00:00:40.533Z,15.45
2023-06-28T00:04:26.990Z,15.37
2023-06-28T00:07:32.311Z,15.33
2023-06-28T00:10:36.447Z,15.31
2023-06-28T00:13:40.497Z,15.31
2023-06-28T00:16:44.525Z,15.32
2023-06-28T00:19:51.227Z,15.33
2023-06-28T00:22:55.873Z,15.32
2023-06-28T00:25:59.971Z,15.29
2023-06-28T00:29:04.501Z,15.25
2023-06-28T00:32:09.205Z,15.20
2023-06-28T00:35:13.443Z,15.14
2023-06-28T00:38:17.574Z,15.10
2023-06-28T00:41:21.822Z,15.08
2023-06-28T00:44:25.868Z,15.08
2023-06-28T00:47:31.801Z,15.08
2023-06-28T00:50:38.714Z,15.07
2023-06-28T00:53:42.819Z,15.06
2023-06-28T00:56:49.036Z,15.05
2023-06-28T00:59:56.602Z,15.01
2023-06-28T01:03:01.888Z,14.97
2023-06-28T01:06:07.932Z,14.93
2023-06-28T01:09:12.759Z,14.89
2023-06-28T01:12:16.838Z,14.84
2023-06-28T01:15:21.812Z,14.82
2023-06-28T01:18:25.888Z,14.80
2023-06-28T01:21:35.994Z,14.80
2023-06-28T01:24:41.635Z,14.78
2023-06-28T01:27:47.985Z,14.77
2023-06-28T01:30:54.167Z,14.74
2023-06-28T01:33:58.471Z,14.71
2023-06-28T01:37:05.677Z,14.66
2023-06-28T01:40:11.486Z,14.59
2023-06-28T01:43:15.772Z,14.54
2023-06-28T01:46:19.918Z,14.50
2023-06-28T01:49:26.752Z,14.49
2023-06-28T01:52:31.725Z,14.50
2023-06-28T01:55:38.062Z,14.52
2023-06-28T01:58:42.167Z,14.53
2023-06-28T02:01:46.771Z,14.53
2023-06-28T02:04:51.174Z,14.50
2023-06-28T02:07:55.477Z,14.46
2023-06-28T02:11:00.026Z,14.42
2023-06-28T02:14:04.333Z,14.37
2023-06-28T02:17:14.984Z,14.35
2023-06-28T02:20:20.355Z,14.33
2023-06-28T02:23:24.407Z,14.34
2023-06-28T02:26:31.054Z,14.33
2023-06-28T02:29:35.160Z,14.33
2023-06-28T02:32:39.660Z,14.33
2023-06-28T02:35:44.007Z,14.30
2023-06-28T02:38:48.716Z,14.26
2023-06-28T02:41:52.902Z,14.23
2023-06-28T02:44:57.334Z,14.18
2023-06-28T02:48:02.317Z,14.15
2023-06-28T02:51:07.198Z,14.12
2023-06-28T02:54:11.412Z,14.12
2023-06-28T02:57:16.028Z,14.12
2023-06-28T03:00:26.019Z,14.11
2023-06-28T03:03:34.782Z,14.09
2023-06-28T03:06:40.342Z,14.07
2023-06-28T03:09:44.952Z,14.05
2023-06-28T03:12:49.473Z,14.03
2023-06-28T03:15:53.568Z,14.03
2023-06-28T03:18:57.814Z,14.06
2023-06-28T03:22:03.067Z,14.10
2023-06-28T03:25:07.507Z,14.11
2023-06-28T03:28:12.559Z,14.14
2023-06-28T03:31:16.820Z,14.15
2023-06-28T03:34:21.430Z,14.15
2023-06-28T03:37:25.514Z,14.15
2023-06-28T03:40:32.514Z,14.18
2023-06-28T03:43:36.783Z,14.20
2023-06-28T03:46:40.985Z,14.22
2023-06-28T03:49:47.164Z,14.25
2023-06-28T03:52:51.254Z,14.25
2023-06-28T03:55:55.453Z,14.27
2023-06-28T03:58:59.552Z,14.33
2023-06-28T04:02:03.694Z,14.37
2023-06-28T04:05:08.327Z,14.44
2023-06-28T04:08:12.548Z,14.49
2023-06-28T04:11:16.590Z,14.54
2023-06-28T04:14:20.615Z,14.58
2023-06-28T04:17:25.251Z,14.61
2023-06-28T04:20:30.216Z,14.64
2023-06-28T04:23:34.381Z,14.66
2023-06-28T04:26:38.423Z,14.69
2023-06-28T04:29:42.559Z,14.74
2023-06-28T04:32:46.596Z,14.81
2023-06-28T04:35:54.026Z,14.88
2023-06-28T04:38:58.691Z,14.93
2023-06-28T04:42:04.337Z,14.98
2023-06-28T04:45:11.813Z,15.02
2023-06-28T04:48:16.130Z,15.04
2023-06-28T04:51:21.275Z,15.07
2023-06-28T04:54:25.297Z,15.12
2023-06-28T04:57:29.472Z,15.18
2023-06-28T05:00:34.562Z,15.25
2023-06-28T05:03:41.801Z,15.32
2023-06-28T05:06:45.968Z,15.38
2023-06-28T05:09:50.076Z,15.43
2023-06-28T05:12:54.138Z,15.45
2023-06-28T05:15:58.290Z,15.47
2023-06-28T05:19:02.389Z,15.49
2023-06-28T05:22:06.464Z,15.55
2023-06-28T05:25:10.840Z,15.62
2023-06-28T05:28:16.390Z,15.69
2023-06-28T05:31:20.678Z,15.82
2023-06-28T05:34:24.823Z,15.91
2023-06-28T05:37:28.929Z,15.99
2023-06-28T05:40:34.501Z,16.06
2023-06-28T05:43:38.526Z,16.13
2023-06-28T05:46:42.877Z,16.19
2023-06-28T05:49:46.889Z,16.25
2023-06-28T05:52:51.433Z,16.33
2023-06-28T05:55:56.248Z,16.40
2023-06-28T05:59:00.508Z,16.47
2023-06-28T06:02:05.358Z,16.57
2023-06-28T06:05:09.998Z,16.63
2023-06-28T06:08:14.321Z,16.68
2023-06-28T06:11:18.444Z,16.74
2023-06-28T06:14:22.553Z,16.80
2023-06-28T06:17:26.643Z,16.86
2023-06-28T06:20:33.095Z,16.91
2023-06-28T06:23:37.164Z,16.97
2023-06-28T06:26:41.196Z,17.04
2023-06-28T06:29:45.720Z,17.08
2023-06-28T06:32:51.283Z,17.15
2023-06-28T06:35:57.383Z,17.21
2023-06-28T06:39:02.168Z,17.32
2023-06-28T06:42:07.354Z,17.44
2023-06-28T06:45:18.529Z,17.56
2023-06-28T06:48:24.152Z,17.68
2023-06-28T06:51:28.184Z,17.78
2023-06-28T06:54:32.436Z,17.90
2023-06-28T06:57:37.088Z,18.00
2023-06-28T07:00:41.422Z,18.09
2023-06-28T07:03:45.718Z,18.20
2023-06-28T07:06:50.449Z,18.24
2023-06-28T07:09:54.529Z,18.26
2023-06-28T07:13:00.232Z,18.31
2023-06-28T07:16:07.201Z,18.38
2023-06-28T07:19:12.293Z,18.43
2023-06-28T07:22:16.590Z,18.47
2023-06-28T07:25:20.634Z,18.53
2023-06-28T07:28:24.745Z,18.57
2023-06-28T07:31:28.928Z,18.63
2023-06-28T07:34:33.128Z,18.71
2023-06-28T07:37:37.264Z,18.78
2023-06-28T07:40:41.424Z,18.82
2023-06-28T07:43:45.462Z,18.89
2023-06-28T07:46:49.476Z,18.98
2023-06-28T07:49:53.627Z,19.08
2023-06-28T07:52:57.693Z,19.20
2023-06-28T07:56:02.448Z,19.28
2023-06-28T07:59:06.760Z,19.31
2023-06-28T08:02:10.967Z,19.32
2023-06-28T08:05:15.903Z,19.39
2023-06-28T08:08:20.148Z,19.45
2023-06-28T08:11:24.205Z,19.50
2023-06-28T08:14:29.719Z,19.54
2023-06-28T08:17:34.055Z,19.59
2023-06-28T08:20:40.577Z,19.60
2023-06-28T08:23:46.309Z,19.67
2023-06-28T08:26:50.571Z,19.69
2023-06-28T08:29:54.686Z,19.75
2023-06-28T08:32:59.785Z,19.81
2023-06-28T08:36:04.307Z,19.91
2023-06-28T08:39:08.842Z,19.98
2023-06-28T08:42:14.706Z,20.02
2023-06-28T08:45:20.203Z,20.09
2023-06-28T08:48:29.729Z,20.12
2023-06-28T08:51:35.013Z,20.17
2023-06-28T08:54:39.173Z,20.23
2023-06-28T08:57:44.782Z,20.17
2023-06-28T09:00:48.883Z,20.09
2023-06-28T09:03:53.532Z,20.00
2023-06-28T09:06:58.096Z,19.92
2023-06-28T09:10:02.383Z,19.83
2023-06-28T09:13:07.137Z,19.74
2023-06-28T09:16:11.572Z,19.73
2023-06-28T09:19:15.802Z,19.79
2023-06-28T09:22:22.016Z,19.83
2023-06-28T09:25:28.301Z,19.85
2023-06-28T09:28:36.850Z,19.84
2023-06-28T09:31:46.154Z,19.80
2023-06-28T09:34:50.242Z,19.79
2023-06-28T09:37:56.195Z,19.87
2023-06-28T09:41:01.954Z,19.97
2023-06-28T09:44:07.858Z,20.08
2023-06-28T09:47:12.672Z,20.18
2023-06-28T09:50:16.733Z,20.20
2023-06-28T09:53:23.014Z,20.18
2023-06-28T09:56:37.378Z,20.17
2023-06-28T09:59:43.154Z,20.24
2023-06-28T10:02:50.449Z,20.30
2023-06-28T10:05:57.627Z,20.34
2023-06-28T10:09:03.206Z,20.43
2023-06-28T10:12:13.515Z,20.50
2023-06-28T10:15:22.011Z,20.53
2023-06-28T10:18:26.446Z,20.53
2023-06-28T10:21:30.623Z,20.50
2023-06-28T10:24:37.716Z,20.40
2023-06-28T10:27:42.572Z,20.36
2023-06-28T10:30:47.579Z,20.37
2023-06-28T10:33:52.076Z,20.42
2023-06-28T10:36:57.881Z,20.54
2023-06-28T10:40:02.886Z,20.69
2023-06-28T10:43:07.116Z,20.82
2023-06-28T10:46:28.297Z,20.87
2023-06-28T10:49:35.937Z,20.87
2023-06-28T10:52:48.404Z,20.85
2023-06-28T10:56:09.228Z,20.93
2023-06-28T10:59:13.414Z,21.00
2023-06-28T11:02:17.615Z,21.03
2023-06-28T11:05:46.583Z,21.02
2023-06-28T11:08:52.795Z,21.00
2023-06-28T11:12:01.172Z,20.96
2023-06-28T11:15:14.432Z,20.91
2023-06-28T11:18:20.343Z,20.86
2023-06-28T11:21:26.234Z,20.87
2023-06-28T11:24:30.330Z,20.89
2023-06-28T11:27:41.662Z,20.93
2023-06-28T11:30:52.598Z,20.92
2023-06-28T11:33:57.002Z,20.86
2023-06-28T11:37:02.025Z,20.82
2023-06-28T11:40:08.880Z,20.82
2023-06-28T11:43:13.059Z,20.95
2023-06-28T11:46:23.403Z,21.09
2023-06-28T11:49:28.659Z,21.21
2023-06-28T11:52:34.812Z,21.27
2023-06-28T11:55:39.969Z,21.32
2023-06-28T11:58:44.195Z,21.35
2023-06-28T12:01:59.664Z,21.35
2023-06-28T12:05:07.074Z,21.31
2023-06-28T12:08:11.507Z,21.33
2023-06-28T12:11:16.877Z,21.34
2023-06-28T12:14:22.673Z,21.36
2023-06-28T12:17:26.835Z,21.43
2023-06-28T12:20:34.837Z,21.47
2023-06-28T12:23:39.104Z,21.50
2023-06-28T12:26:48.871Z,21.60
2023-06-28T12:29:52.950Z,21.68
2023-06-28T12:32:58.258Z,21.75
2023-06-28T12:36:02.994Z,21.85
2023-06-28T12:39:08.946Z,21.95
2023-06-28T12:42:21.487Z,21.98
2023-06-28T12:45:25.774Z,21.98
2023-06-28T12:48:29.900Z,21.93
2023-06-28T12:51:33.943Z,22.00
2023-06-28T12:54:38.343Z,22.11
2023-06-28T12:57:44.289Z,22.16
2023-06-28T13:00:50.207Z,22.12
2023-06-28T13:03:56.349Z,22.11
2023-06-28T13:07:00.880Z,22.13
2023-06-28T13:10:06.523Z,22.19
2023-06-28T13:13:10.657Z,22.21
2023-06-28T13:16:15.233Z,22.24
2023-06-28T13:19:19.814Z,22.21
2023-06-28T13:22:24.081Z,22.11
2023-06-28T13:25:28.135Z,22.08
2023-06-28T13:28:32.175Z,22.15
2023-06-28T13:31:36.342Z,22.33
2023-06-28T13:34:40.673Z,22.54
2023-06-28T13:37:46.433Z,22.75
2023-06-28T13:40:50.760Z,22.97
2023-06-28T13:43:54.829Z,23.26
2023-06-28T13:46:58.985Z,23.57
2023-06-28T13:50:03.621Z,23.84
2023-06-28T13:53:08.128Z,23.92
2023-06-28T13:56:12.279Z,24.00
2023-06-28T13:59:17.038Z,24.13
2023-06-28T14:02:21.183Z,24.28
2023-06-28T14:05:25.850Z,24.17
2023-06-28T14:08:29.877Z,24.07
2023-06-28T14:11:33.992Z,24.29
2023-06-28T14:14:38.006Z,24.53
2023-06-28T14:17:42.156Z,24.93
2023-06-28T14:20:46.544Z,25.29
2023-06-28T14:23:50.672Z,25.56
2023-06-28T14:26:55.665Z,25.69
2023-06-28T14:29:59.790Z,25.66
2023-06-28T14:33:04.306Z,25.45
2023-06-28T14:36:08.585Z,25.16
2023-06-28T14:39:12.919Z,24.80
2023-06-28T14:42:17.126Z,24.39
2023-06-28T14:45:21.214Z,23.98
2023-06-28T14:48:25.326Z,23.60
2023-06-28T14:51:29.518Z,23.28
2023-06-28T14:54:33.584Z,22.99
2023-06-28T14:57:37.930Z,22.75
2023-06-28T15:00:42.478Z,22.55
2023-06-28T15:03:46.769Z,22.33
2023-06-28T15:06:51.049Z,22.08
2023-06-28T15:09:55.103Z,21.89
2023-06-28T15:12:59.223Z,21.67
2023-06-28T15:16:03.529Z,21.48
2023-06-28T15:19:07.904Z,21.28
2023-06-28T15:22:11.945Z,21.13
2023-06-28T15:25:16.609Z,20.96
2023-06-28T15:28:21.362Z,20.85
2023-06-28T15:31:26.388Z,20.73
2023-06-28T15:34:30.535Z,20.61
2023-06-28T15:37:34.559Z,20.47
2023-06-28T15:40:38.944Z,20.34
2023-06-28T15:43:43.088Z,20.23
2023-06-28T15:46:50.859Z,20.12
2023-06-28T15:49:55.350Z,20.01
2023-06-28T15:52:59.432Z,19.90
2023-06-28T15:56:04.038Z,19.81
2023-06-28T15:59:08.308Z,19.68
2023-06-28T16:02:14.970Z,19.57
2023-06-28T16:05:23.153Z,19.49
2023-06-28T16:08:27.292Z,19.44
2023-06-28T16:11:34.663Z,19.39
2023-06-28T16:14:39.110Z,19.32
2023-06-28T16:17:43.673Z,19.27
2023-06-28T16:20:47.952Z,19.19
2023-06-28T16:23:52.340Z,19.12
2023-06-28T16:26:56.580Z,19.09
2023-06-28T16:30:02.213Z,19.09
2023-06-28T16:33:09.869Z,19.06
2023-06-28T16:36:14.112Z,19.03
2023-06-28T16:39:18.188Z,19.02
2023-06-28T16:42:22.216Z,19.04
2023-06-28T16:45:26.731Z,19.06
2023-06-28T16:48:31.022Z,19.09
2023-06-28T16:51:35.406Z,19.13
2023-06-28T16:54:39.489Z,19.15
2023-06-28T16:57:43.525Z,19.13
2023-06-28T17:00:47.988Z,19.10
2023-06-28T17:03:52.172Z,19.06
2023-06-28T17:06:56.213Z,19.00
2023-06-28T17:10:00.475Z,18.94
2023-06-28T17:13:06.244Z,18.87
2023-06-28T17:16:10.772Z,18.82
2023-06-28T17:19:14.785Z,18.77
2023-06-28T17:22:19.323Z,18.71
2023-06-28T17:25:23.576Z,18.68
2023-06-28T17:28:29.201Z,18.67
2023-06-28T17:31:33.392Z,18.67
2023-06-28T17:34:37.402Z,18.66
2023-06-28T17:37:41.672Z,18.65
2023-06-28T17:40:45.793Z,18.63
2023-06-28T17:43:50.023Z,18.58
2023-06-28T17:46:54.044Z,18.53
2023-06-28T17:49:58.143Z,18.49
2023-06-28T17:53:02.275Z,18.45
2023-06-28T17:56:06.410Z,18.38
2023-06-28T17:59:11.195Z,18.33
2023-06-28T18:02:18.262Z,18.32
2023-06-28T18:05:22.966Z,18.33
2023-06-28T18:08:29.013Z,18.35
2023-06-28T18:11:33.201Z,18.33
2023-06-28T18:14:37.213Z,18.28
2023-06-28T18:17:41.414Z,18.26
2023-06-28T18:20:45.809Z,18.21
2023-06-28T18:23:50.195Z,18.20
2023-06-28T18:26:54.299Z,18.15
2023-06-28T18:29:58.584Z,18.09
2023-06-28T18:33:02.726Z,18.06
2023-06-28T18:36:07.808Z,18.02
2023-06-28T18:39:11.856Z,17.99
2023-06-28T18:42:16.159Z,17.94
2023-06-28T18:45:20.226Z,17.89
2023-06-28T18:48:24.416Z,17.86
2023-06-28T18:51:36.159Z,17.82
2023-06-28T18:54:40.380Z,17.79
2023-06-28T18:57:44.450Z,17.77
2023-06-28T19:00:48.593Z,17.73
2023-06-28T19:03:52.890Z,17.66
2023-06-28T19:06:56.934Z,17.58
2023-06-28T19:10:02.078Z,17.54
2023-06-28T19:13:06.329Z,17.50
2023-06-28T19:16:10.434Z,17.46
2023-06-28T19:19:14.602Z,17.43
2023-06-28T19:22:18.671Z,17.40
2023-06-28T19:25:22.862Z,17.36
2023-06-28T19:28:26.934Z,17.30
2023-06-28T19:31:31.593Z,17.22
2023-06-28T19:34:35.873Z,17.15
2023-06-28T19:37:39.922Z,17.09
2023-06-28T19:40:44.247Z,17.04
2023-06-28T19:43:49.871Z,17.02
2023-06-28T19:46:54.016Z,17.00
2023-06-28T19:49:58.109Z,17.00
2023-06-28T19:53:02.212Z,16.98
2023-06-28T19:56:06.574Z,16.92
2023-06-28T19:59:11.115Z,16.87
2023-06-28T20:02:15.425Z,16.83
2023-06-28T20:05:20.972Z,16.80
2023-06-28T20:08:25.785Z,16.75
2023-06-28T20:11:29.975Z,16.71
2023-06-28T20:14:34.213Z,16.68
2023-06-28T20:17:38.497Z,16.66
2023-06-28T20:20:42.880Z,16.66
2023-06-28T20:23:47.320Z,16.66
2023-06-28T20:26:51.313Z,16.67
2023-06-28T20:29:56.849Z,16.67
2023-06-28T20:33:00.941Z,16.67
2023-06-28T20:36:05.456Z,16.68
2023-06-28T20:39:09.510Z,16.66
2023-06-28T20:42:20.976Z,16.60
2023-06-28T20:45:25.080Z,16.52
2023-06-28T20:48:30.871Z,16.47
2023-06-28T20:51:35.139Z,16.44
2023-06-28T20:54:39.428Z,16.43
2023-06-28T20:57:43.560Z,16.43
2023-06-28T21:00:47.801Z,16.42
2023-06-28T21:03:54.922Z,16.41
2023-06-28T21:06:59.529Z,16.36
2023-06-28T21:10:04.291Z,16.33
2023-06-28T21:13:09.048Z,16.31
2023-06-28T21:16:13.827Z,16.30
2023-06-28T21:19:17.901Z,16.29
2023-06-28T21:22:22.768Z,16.27
2023-06-28T21:25:26.820Z,16.24
2023-06-28T21:28:30.842Z,16.19
2023-06-28T21:31:35.302Z,16.17
2023-06-28T21:34:42.706Z,16.16
2023-06-28T21:37:47.124Z,16.15
2023-06-28T21:40:51.128Z,16.16
2023-06-28T21:43:55.254Z,16.18
2023-06-28T21:46:59.418Z,16.18
2023-06-28T21:50:04.215Z,16.19
2023-06-28T21:53:08.631Z,16.20
2023-06-28T21:56:12.839Z,16.19
2023-06-28T21:59:17.051Z,16.19
2023-06-28T22:02:24.710Z,16.17
2023-06-28T22:05:29.843Z,16.17
2023-06-28T22:08:36.548Z,16.15
2023-06-28T22:11:40.643Z,16.14
2023-06-28T22:14:46.756Z,16.14
2023-06-28T22:17:51.278Z,16.17
2023-06-28T22:20:55.345Z,16.20
2023-06-28T22:23:59.384Z,16.22
2023-06-28T22:27:04.481Z,16.25
2023-06-28T22:30:09.675Z,16.29
2023-06-28T22:33:14.087Z,16.32
2023-06-28T22:36:18.434Z,16.35
2023-06-28T22:39:22.482Z,16.39
2023-06-28T22:42:26.468Z,16.44
2023-06-28T22:45:30.480Z,16.48
2023-06-28T22:48:38.263Z,16.49
2023-06-28T22:51:43.265Z,16.48
2023-06-28T22:54:47.257Z,16.48
2023-06-28T22:57:51.621Z,16.51
2023-06-28T23:00:56.867Z,16.53
2023-06-28T23:04:01.004Z,16.52
2023-06-28T23:07:05.305Z,16.52
2023-06-28T23:10:12.769Z,16.52
2023-06-28T23:13:20.598Z,16.53
2023-06-28T23:16:25.238Z,16.55
2023-06-28T23:19:29.330Z,16.54
2023-06-28T23:22:34.219Z,16.53
2023-06-28T23:25:38.489Z,16.52
2023-06-28T23:28:42.528Z,16.51
2023-06-28T23:31:47.232Z,16.52
2023-06-28T23:34:51.328Z,16.52
2023-06-28T23:37:55.406Z,16.50
2023-06-28T23:40:59.475Z,16.48
2023-06-28T23:44:06.217Z,16.43
2023-06-28T23:47:13.543Z,16.41
2023-06-28T23:50:20.322Z,16.38
2023-06-28T23:53:24.353Z,16.39
2023-06-28T23:56:28.376Z,16.38
2023-06-28T23:59:32.423Z,16.38
